createdAt,value
2019-03-27T00:00:41.737Z,9.10
2019-03-27T00:01:41.711Z,10.10
2019-03-27T00:02:41.686Z,9.30
2019-03-27T00:03:41.664Z,9.10
2019-03-27T00:04:41.640Z,10.20
2019-03-27T00:05:41.623Z,9.30
2019-03-27T00:06:41.596Z,9.80
2019-03-27T00:07:41.573Z,10.50
2019-03-27T00:08:41.557Z,9.90
2019-03-27T00:09:41.526Z,10.60
2019-03-27T00:10:41.503Z,9.90
2019-03-27T00:11:41.490Z,9.40
2019-03-27T00:12:41.457Z,11.10
2019-03-27T00:13:41.431Z,9.30
2019-03-27T00:14:41.412Z,9.70
2019-03-27T00:15:41.393Z,10.70
2019-03-27T00:16:41.362Z,9.20
2019-03-27T00:17:41.349Z,9.50
2019-03-27T00:18:41.316Z,10.00
2019-03-27T00:19:41.297Z,10.10
2019-03-27T00:20:41.271Z,9.60
2019-03-27T00:21:41.247Z,9.20
2019-03-27T00:22:41.223Z,9.90
2019-03-27T00:23:41.209Z,10.50
2019-03-27T00:24:41.176Z,9.70
2019-03-27T00:25:41.157Z,10.30
2019-03-27T00:26:41.130Z,10.10
2019-03-27T00:27:41.109Z,9.60
2019-03-27T00:28:41.091Z,10.30
2019-03-27T00:29:41.074Z,10.10
2019-03-27T00:30:41.040Z,11.60
2019-03-27T00:31:41.013Z,10.50
2019-03-27T00:32:40.990Z,10.20
2019-03-27T00:33:40.968Z,10.30
2019-03-27T00:34:40.942Z,10.80
2019-03-27T00:35:40.936Z,10.70
2019-03-27T00:36:40.898Z,9.90
2019-03-27T00:37:40.878Z,10.30
2019-03-27T00:38:40.850Z,9.80
2019-03-27T00:39:40.837Z,10.80
2019-03-27T00:40:40.804Z,10.30
2019-03-27T00:41:40.781Z,10.80
2019-03-27T00:42:40.758Z,10.60
2019-03-27T00:43:40.733Z,10.60
2019-03-27T00:44:40.712Z,10.50
2019-03-27T00:45:40.906Z,10.50
2019-03-27T00:46:40.663Z,11.20
2019-03-27T00:47:40.641Z,10.60
2019-03-27T00:48:40.619Z,10.50
2019-03-27T00:49:40.599Z,10.10
2019-03-27T00:50:40.570Z,10.80
2019-03-27T00:51:40.545Z,9.90
2019-03-27T00:52:40.524Z,10.60
2019-03-27T00:53:40.503Z,10.60
2019-03-27T00:54:40.476Z,10.80
2019-03-27T00:55:40.453Z,10.00
2019-03-27T00:56:40.435Z,11.20
2019-03-27T00:57:40.406Z,11.30
2019-03-27T00:58:40.385Z,10.30
2019-03-27T00:59:40.358Z,10.80
2019-03-27T01:00:40.338Z,11.30
2019-03-27T01:01:40.319Z,11.00
2019-03-27T01:02:40.297Z,10.90
2019-03-27T01:03:40.267Z,10.90
2019-03-27T01:04:40.248Z,10.60
2019-03-27T01:05:40.219Z,11.00
2019-03-27T01:06:40.194Z,11.30
2019-03-27T01:07:40.177Z,11.20
2019-03-27T01:08:40.147Z,11.50
2019-03-27T01:09:40.125Z,11.10
2019-03-27T01:10:40.101Z,11.10
2019-03-27T01:11:40.088Z,11.20
2019-03-27T01:12:40.053Z,11.50
2019-03-27T01:13:40.030Z,11.00
2019-03-27T01:14:40.012Z,11.70
2019-03-27T01:15:40.426Z,11.80
2019-03-27T01:16:39.959Z,11.70
2019-03-27T01:17:39.937Z,10.90
2019-03-27T01:18:39.913Z,12.00
2019-03-27T01:19:39.889Z,10.60
2019-03-27T01:20:39.866Z,11.80
2019-03-27T01:21:39.843Z,11.70
2019-03-27T01:22:39.820Z,11.70
2019-03-27T01:23:39.801Z,12.10
2019-03-27T01:24:39.781Z,11.60
2019-03-27T01:25:39.749Z,12.40
2019-03-27T01:26:39.814Z,12.60
2019-03-27T01:27:39.700Z,11.60
2019-03-27T01:28:39.678Z,12.00
2019-03-27T01:29:39.662Z,13.30
2019-03-27T01:30:39.632Z,12.50
2019-03-27T01:31:39.604Z,13.60
2019-03-27T01:32:39.584Z,13.30
2019-03-27T01:33:39.559Z,11.90
2019-03-27T01:34:39.544Z,13.60
2019-03-27T01:35:39.511Z,13.50
2019-03-27T01:36:39.498Z,13.30
2019-03-27T01:37:39.477Z,12.80
2019-03-27T01:38:39.441Z,12.30
2019-03-27T01:39:39.416Z,12.20
2019-03-27T01:40:39.392Z,12.60
2019-03-27T01:41:39.369Z,12.50
2019-03-27T01:42:39.352Z,12.30
2019-03-27T01:43:39.323Z,13.00
2019-03-27T01:44:39.297Z,12.80
2019-03-27T01:45:52.112Z,12.90
2019-03-27T01:46:39.252Z,12.80
2019-03-27T01:47:39.269Z,12.60
2019-03-27T01:48:39.202Z,12.60
2019-03-27T01:49:39.179Z,12.40
2019-03-27T01:50:39.154Z,13.20
2019-03-27T01:51:39.131Z,13.70
2019-03-27T01:52:39.107Z,14.20
2019-03-27T01:53:39.084Z,12.60
2019-03-27T01:54:39.058Z,13.40
2019-03-27T01:55:39.040Z,13.10
2019-03-27T01:56:39.014Z,13.50
2019-03-27T01:57:38.995Z,13.70
2019-03-27T01:58:38.964Z,13.80
2019-03-27T01:59:38.940Z,13.90
2019-03-27T02:00:38.921Z,13.20
2019-03-27T02:01:38.942Z,13.90
2019-03-27T02:02:38.877Z,15.00
2019-03-27T02:03:38.844Z,13.90
2019-03-27T02:04:38.823Z,13.70
2019-03-27T02:05:38.797Z,13.40
2019-03-27T02:06:38.774Z,13.90
2019-03-27T02:07:38.751Z,13.90
2019-03-27T02:08:38.726Z,14.30
2019-03-27T02:09:38.701Z,14.20
2019-03-27T02:10:38.677Z,13.80
2019-03-27T02:11:38.653Z,13.60
2019-03-27T02:12:38.632Z,14.30
2019-03-27T02:13:38.606Z,13.80
2019-03-27T02:14:38.582Z,13.40
2019-03-27T02:15:38.556Z,13.80
2019-03-27T02:16:38.539Z,13.80
2019-03-27T02:17:38.529Z,13.50
2019-03-27T02:18:38.486Z,15.40
2019-03-27T02:19:38.461Z,14.70
2019-03-27T02:20:38.439Z,14.80
2019-03-27T02:21:38.419Z,14.50
2019-03-27T02:22:38.389Z,14.30
2019-03-27T02:23:38.367Z,13.00
2019-03-27T02:24:38.347Z,14.00
2019-03-27T02:25:38.319Z,14.30
2019-03-27T02:26:38.293Z,14.70
2019-03-27T02:27:38.278Z,14.50
2019-03-27T02:28:38.248Z,13.70
2019-03-27T02:29:38.220Z,13.70
2019-03-27T02:30:38.200Z,14.30
2019-03-27T02:31:38.176Z,15.30
2019-03-27T02:32:38.159Z,14.90
2019-03-27T02:33:38.126Z,15.20
2019-03-27T02:34:38.099Z,13.60
2019-03-27T02:35:38.076Z,14.20
2019-03-27T02:36:38.065Z,14.40
2019-03-27T02:37:38.027Z,14.20
2019-03-27T02:38:38.002Z,13.80
2019-03-27T02:39:37.994Z,14.10
2019-03-27T02:40:37.958Z,13.80
2019-03-27T02:41:37.932Z,14.20
2019-03-27T02:42:37.908Z,14.90
2019-03-27T02:43:37.890Z,14.90
2019-03-27T02:44:37.913Z,14.50
2019-03-27T02:45:37.834Z,14.30
2019-03-27T02:46:37.810Z,14.30
2019-03-27T02:47:37.884Z,13.40
2019-03-27T02:48:37.768Z,14.10
2019-03-27T02:49:37.739Z,14.70
2019-03-27T02:50:37.714Z,13.80
2019-03-27T02:51:37.692Z,13.90
2019-03-27T02:52:37.668Z,14.20
2019-03-27T02:53:37.641Z,13.70
2019-03-27T02:54:37.616Z,13.60
2019-03-27T02:55:37.591Z,14.10
2019-03-27T02:56:37.570Z,14.20
2019-03-27T02:57:37.546Z,13.70
2019-03-27T02:58:37.520Z,13.50
2019-03-27T02:59:37.495Z,13.50
2019-03-27T03:00:37.485Z,15.00
2019-03-27T03:01:37.449Z,14.70
2019-03-27T03:02:37.424Z,14.40
2019-03-27T03:03:37.401Z,13.90
2019-03-27T03:04:37.383Z,14.50
2019-03-27T03:05:37.348Z,14.30
2019-03-27T03:06:37.325Z,13.80
2019-03-27T03:07:37.300Z,14.20
2019-03-27T03:08:37.279Z,13.90
2019-03-27T03:09:37.253Z,15.20
2019-03-27T03:10:37.226Z,15.00
2019-03-27T03:11:37.201Z,14.30
2019-03-27T03:12:37.196Z,14.20
2019-03-27T03:13:37.156Z,14.10
2019-03-27T03:14:37.146Z,14.30
2019-03-27T03:15:37.113Z,15.00
2019-03-27T03:16:42.831Z,14.90
2019-03-27T03:17:37.064Z,14.80
2019-03-27T03:18:37.031Z,14.80
2019-03-27T03:19:37.007Z,13.10
2019-03-27T03:20:37.133Z,13.80
2019-03-27T03:21:36.961Z,13.90
2019-03-27T03:22:36.934Z,14.00
2019-03-27T03:23:36.910Z,13.50
2019-03-27T03:24:36.890Z,13.40
2019-03-27T03:25:36.866Z,13.20
2019-03-27T03:26:36.846Z,12.70
2019-03-27T03:27:36.814Z,12.90
2019-03-27T03:28:36.794Z,13.10
2019-03-27T03:29:36.770Z,11.90
2019-03-27T03:30:36.741Z,12.00
2019-03-27T03:31:36.721Z,12.60
2019-03-27T03:32:36.694Z,12.90
2019-03-27T03:33:36.669Z,12.50
2019-03-27T03:34:36.652Z,12.90
2019-03-27T03:35:36.620Z,12.30
2019-03-27T03:36:36.595Z,12.20
2019-03-27T03:37:36.571Z,12.30
2019-03-27T03:38:36.546Z,12.10
2019-03-27T03:39:36.521Z,12.20
2019-03-27T03:40:36.501Z,12.00
2019-03-27T03:41:36.474Z,12.20
2019-03-27T03:42:36.449Z,12.40
2019-03-27T03:43:36.426Z,11.40
2019-03-27T03:44:36.402Z,12.20
2019-03-27T03:45:36.387Z,12.40
2019-03-27T03:46:36.355Z,12.60
2019-03-27T03:47:36.331Z,12.10
2019-03-27T03:48:36.306Z,11.40
2019-03-27T03:49:36.282Z,11.60
2019-03-27T03:50:36.269Z,12.60
2019-03-27T03:51:36.236Z,11.90
2019-03-27T03:52:36.214Z,12.10
2019-03-27T03:53:36.211Z,11.40
2019-03-27T03:54:36.168Z,12.00
2019-03-27T03:55:36.144Z,12.30
2019-03-27T03:56:36.220Z,12.00
2019-03-27T03:57:36.093Z,12.10
2019-03-27T03:58:36.072Z,11.40
2019-03-27T03:59:36.040Z,11.70
2019-03-27T04:00:36.021Z,11.70
2019-03-27T04:01:35.993Z,11.60
2019-03-27T04:02:35.983Z,10.90
2019-03-27T04:03:36.125Z,12.20
2019-03-27T04:04:35.923Z,12.10
2019-03-27T04:05:35.909Z,10.60
2019-03-27T04:06:35.872Z,10.50
2019-03-27T04:07:35.849Z,11.30
2019-03-27T04:08:35.834Z,11.70
2019-03-27T04:09:35.803Z,11.30
2019-03-27T04:10:35.785Z,11.30
2019-03-27T04:11:35.756Z,10.70
2019-03-27T04:12:35.748Z,10.50
2019-03-27T04:13:35.706Z,11.10
2019-03-27T04:14:35.682Z,11.40
2019-03-27T04:15:35.658Z,11.10
2019-03-27T04:16:35.634Z,11.50
2019-03-27T04:17:35.611Z,11.00
2019-03-27T04:18:35.694Z,10.70
2019-03-27T04:19:35.564Z,10.80
2019-03-27T04:20:35.544Z,10.60
2019-03-27T04:21:35.515Z,10.50
2019-03-27T04:22:35.491Z,10.60
2019-03-27T04:23:35.480Z,9.60
2019-03-27T04:24:35.454Z,9.90
2019-03-27T04:26:06.365Z,10.30
2019-03-27T04:26:35.398Z,9.30
2019-03-27T04:27:35.371Z,9.90
2019-03-27T04:28:35.359Z,9.80
2019-03-27T04:29:35.325Z,9.50
2019-03-27T04:30:35.411Z,10.30
2019-03-27T04:31:35.283Z,8.90
2019-03-27T04:32:35.256Z,9.00
2019-03-27T04:33:35.231Z,10.10
2019-03-27T04:34:35.212Z,9.80
2019-03-27T04:35:35.183Z,9.00
2019-03-27T04:36:35.159Z,9.50
2019-03-27T04:37:35.143Z,9.80
2019-03-27T04:38:35.126Z,9.60
2019-03-27T04:39:35.094Z,8.70
2019-03-27T04:40:35.095Z,9.20
2019-03-27T04:41:35.059Z,9.80
2019-03-27T04:42:35.017Z,9.00
2019-03-27T04:43:34.997Z,9.20
2019-03-27T04:44:34.968Z,9.50
2019-03-27T04:45:34.942Z,9.30
2019-03-27T04:46:34.921Z,9.00
2019-03-27T04:47:34.896Z,9.60
2019-03-27T04:48:34.877Z,9.60
2019-03-27T04:49:34.846Z,9.90
2019-03-27T04:50:34.826Z,9.30
2019-03-27T04:51:34.799Z,9.60
2019-03-27T04:52:34.784Z,9.40
2019-03-27T04:53:34.752Z,9.20
2019-03-27T04:54:34.729Z,8.60
2019-03-27T04:55:34.704Z,9.20
2019-03-27T04:56:34.680Z,9.10
2019-03-27T04:57:34.656Z,9.20
2019-03-27T04:58:34.633Z,8.30
2019-03-27T04:59:34.613Z,9.10
2019-03-27T05:00:34.585Z,8.40
2019-03-27T05:01:34.562Z,9.00
2019-03-27T05:02:34.536Z,8.30
2019-03-27T05:03:34.512Z,8.50
2019-03-27T05:04:34.494Z,9.10
2019-03-27T05:05:34.464Z,9.10
2019-03-27T05:06:34.440Z,9.10
2019-03-27T05:07:34.416Z,8.80
2019-03-27T05:08:34.403Z,8.30
2019-03-27T05:09:34.386Z,9.00
2019-03-27T05:10:34.354Z,8.40
2019-03-27T05:11:34.321Z,9.50
2019-03-27T05:12:34.297Z,9.00
2019-03-27T05:13:34.273Z,9.00
2019-03-27T05:14:34.249Z,8.80
2019-03-27T05:15:34.238Z,9.20
2019-03-27T05:16:34.203Z,8.30
2019-03-27T05:17:45.267Z,8.90
2019-03-27T05:18:34.153Z,8.10
2019-03-27T05:19:34.138Z,9.10
2019-03-27T05:20:34.107Z,8.20
2019-03-27T05:21:34.083Z,8.80
2019-03-27T05:22:34.058Z,9.30
2019-03-27T05:23:34.038Z,9.30
2019-03-27T05:24:34.018Z,8.30
2019-03-27T05:25:33.995Z,8.90
2019-03-27T05:26:33.972Z,9.50
2019-03-27T05:27:36.256Z,9.40
2019-03-27T05:28:33.917Z,9.00
2019-03-27T05:29:33.926Z,8.80
2019-03-27T05:30:33.879Z,9.40
2019-03-27T05:31:33.847Z,10.50
2019-03-27T05:32:33.821Z,9.60
2019-03-27T05:33:33.804Z,8.90
2019-03-27T05:34:33.773Z,10.20
2019-03-27T05:35:33.759Z,9.30
2019-03-27T05:36:33.726Z,9.10
2019-03-27T05:37:33.703Z,9.30
2019-03-27T05:38:33.679Z,9.40
2019-03-27T05:39:33.665Z,10.20
2019-03-27T05:40:33.632Z,9.40
2019-03-27T05:41:33.609Z,9.60
2019-03-27T05:42:33.583Z,9.60
2019-03-27T05:43:33.569Z,9.70
2019-03-27T05:44:33.542Z,9.40
2019-03-27T05:45:33.519Z,9.30
2019-03-27T05:46:33.490Z,9.10
2019-03-27T05:47:33.471Z,9.30
2019-03-27T05:48:33.443Z,8.80
2019-03-27T05:49:33.421Z,9.30
2019-03-27T05:50:33.395Z,8.50
2019-03-27T05:51:33.374Z,8.60
2019-03-27T05:52:33.353Z,8.30
2019-03-27T05:53:33.330Z,8.60
2019-03-27T05:54:33.301Z,8.60
2019-03-27T05:55:33.285Z,9.10
2019-03-27T05:56:33.260Z,8.50
2019-03-27T05:57:33.230Z,8.90
2019-03-27T05:58:33.208Z,8.70
2019-03-27T05:59:33.190Z,8.70
2019-03-27T06:00:33.581Z,8.60
2019-03-27T06:01:33.214Z,8.90
2019-03-27T06:02:33.112Z,8.40
2019-03-27T06:03:33.089Z,9.60
2019-03-27T06:04:33.065Z,8.60
2019-03-27T06:05:33.042Z,8.90
2019-03-27T06:06:33.018Z,9.10
2019-03-27T06:07:32.995Z,8.70
2019-03-27T06:08:32.983Z,9.50
2019-03-27T06:09:32.947Z,8.60
2019-03-27T06:10:32.932Z,9.10
2019-03-27T06:11:32.899Z,9.10
2019-03-27T06:12:32.881Z,9.20
2019-03-27T06:13:32.855Z,10.80
2019-03-27T06:14:32.829Z,10.10
2019-03-27T06:15:32.805Z,9.40
2019-03-27T06:16:32.783Z,9.10
2019-03-27T06:17:32.778Z,10.00
2019-03-27T06:18:32.737Z,10.00
2019-03-27T06:19:32.735Z,9.30
2019-03-27T06:20:32.689Z,8.90
2019-03-27T06:21:32.665Z,10.20
2019-03-27T06:22:32.643Z,9.30
2019-03-27T06:23:32.621Z,9.40
2019-03-27T06:24:32.597Z,9.50
2019-03-27T06:25:32.627Z,9.00
2019-03-27T06:26:32.551Z,9.40
2019-03-27T06:27:32.524Z,8.60
2019-03-27T06:28:32.508Z,9.20
2019-03-27T06:29:32.498Z,8.80
2019-03-27T06:30:32.457Z,8.10
2019-03-27T06:31:32.433Z,8.90
2019-03-27T06:32:32.419Z,9.50
2019-03-27T06:33:32.391Z,8.70
2019-03-27T06:34:32.365Z,8.00
2019-03-27T06:35:32.350Z,9.40
2019-03-27T06:36:32.317Z,8.90
2019-03-27T06:37:32.295Z,9.60
2019-03-27T06:38:32.274Z,9.00
2019-03-27T06:39:32.249Z,9.50
2019-03-27T06:40:32.227Z,9.30
2019-03-27T06:41:32.209Z,10.00
2019-03-27T06:42:32.180Z,8.60
2019-03-27T06:43:32.165Z,9.30
2019-03-27T06:44:32.153Z,10.00
2019-03-27T06:45:32.137Z,9.20
2019-03-27T06:46:32.089Z,9.20
2019-03-27T06:47:32.066Z,9.20
2019-03-27T06:48:32.043Z,10.20
2019-03-27T06:49:32.023Z,9.40
2019-03-27T06:50:32.007Z,10.40
2019-03-27T06:51:39.858Z,9.90
2019-03-27T06:52:31.952Z,10.50
2019-03-27T06:53:31.927Z,10.20
2019-03-27T06:54:31.911Z,9.80
2019-03-27T06:55:31.892Z,10.60
2019-03-27T06:56:31.869Z,9.80
2019-03-27T06:57:31.877Z,10.00
2019-03-27T06:58:31.813Z,9.90
2019-03-27T06:59:31.791Z,8.80
2019-03-27T07:00:31.771Z,10.00
2019-03-27T07:01:31.747Z,10.20
2019-03-27T07:02:31.723Z,10.00
2019-03-27T07:03:31.708Z,10.60
2019-03-27T07:04:31.775Z,9.90
2019-03-27T07:05:31.656Z,9.90
2019-03-27T07:06:31.637Z,9.90
2019-03-27T07:07:31.608Z,9.60
2019-03-27T07:08:31.590Z,10.60
2019-03-27T07:09:31.564Z,9.60
2019-03-27T07:10:31.543Z,9.80
2019-03-27T07:11:31.520Z,9.30
2019-03-27T07:12:31.501Z,9.60
2019-03-27T07:13:31.569Z,9.60
2019-03-27T07:14:31.451Z,10.00
2019-03-27T07:15:31.428Z,10.10
2019-03-27T07:16:31.405Z,10.30
2019-03-27T07:17:31.383Z,8.90
2019-03-27T07:18:40.175Z,9.50
2019-03-27T07:19:31.336Z,9.30
2019-03-27T07:20:31.314Z,8.50
2019-03-27T07:21:31.294Z,9.60
2019-03-27T07:22:31.270Z,9.10
2019-03-27T07:23:31.260Z,9.20
2019-03-27T07:24:31.225Z,10.00
2019-03-27T07:25:31.203Z,9.40
2019-03-27T07:26:31.180Z,8.90
2019-03-27T07:27:31.157Z,9.10
2019-03-27T07:28:31.134Z,9.10
2019-03-27T07:29:31.113Z,9.00
2019-03-27T07:30:31.090Z,8.20
2019-03-27T07:31:31.070Z,8.90
2019-03-27T07:32:31.046Z,8.70
2019-03-27T07:33:31.024Z,9.10
2019-03-27T07:34:31.001Z,9.60
2019-03-27T07:35:30.986Z,8.50
2019-03-27T07:36:30.969Z,8.30
2019-03-27T07:37:30.943Z,8.90
2019-03-27T07:38:30.921Z,8.20
2019-03-27T07:39:30.898Z,8.60
2019-03-27T07:40:30.870Z,8.90
2019-03-27T07:41:30.850Z,8.60
2019-03-27T07:42:30.826Z,8.40
2019-03-27T07:43:30.813Z,8.10
2019-03-27T07:44:30.783Z,8.00
2019-03-27T07:45:30.761Z,8.20
2019-03-27T07:46:30.758Z,7.90
2019-03-27T07:47:30.725Z,7.70
2019-03-27T07:48:30.696Z,8.50
2019-03-27T07:49:30.675Z,7.70
2019-03-27T07:50:30.653Z,7.80
2019-03-27T07:51:30.631Z,8.10
2019-03-27T07:52:30.610Z,8.10
2019-03-27T07:53:30.590Z,8.20
2019-03-27T07:54:30.567Z,7.10
2019-03-27T07:55:30.550Z,6.70
2019-03-27T07:56:30.556Z,7.60
2019-03-27T07:57:30.503Z,8.30
2019-03-27T07:58:30.483Z,9.10
2019-03-27T07:59:30.463Z,7.30
2019-03-27T08:00:30.444Z,7.00
2019-03-27T08:01:30.419Z,7.00
2019-03-27T08:02:30.398Z,7.10
2019-03-27T08:03:30.404Z,7.90
2019-03-27T08:04:30.361Z,7.20
2019-03-27T08:05:30.339Z,7.90
2019-03-27T08:06:30.314Z,7.60
2019-03-27T08:07:30.293Z,8.20
2019-03-27T08:08:30.277Z,8.80
2019-03-27T08:09:30.258Z,8.60
2019-03-27T08:10:30.234Z,7.50
2019-03-27T08:11:30.376Z,7.30
2019-03-27T08:12:30.192Z,7.30
2019-03-27T08:13:30.173Z,7.00
2019-03-27T08:14:30.151Z,7.80
2019-03-27T08:15:30.135Z,7.80
2019-03-27T08:16:30.119Z,7.70
2019-03-27T08:17:30.138Z,8.70
2019-03-27T08:18:30.080Z,8.40
2019-03-27T08:19:30.054Z,8.20
2019-03-27T08:20:30.041Z,7.50
2019-03-27T08:21:31.391Z,7.20
2019-03-27T08:22:30.013Z,7.40
2019-03-27T08:23:29.978Z,7.70
2019-03-27T08:24:29.961Z,7.40
2019-03-27T08:25:29.944Z,6.70
2019-03-27T08:26:29.931Z,7.20
2019-03-27T08:27:29.906Z,5.90
2019-03-27T08:28:29.895Z,6.40
2019-03-27T08:29:29.871Z,6.00
2019-03-27T08:30:29.852Z,6.10
2019-03-27T08:31:29.835Z,6.20
2019-03-27T08:32:29.817Z,6.40
2019-03-27T08:33:29.799Z,6.00
2019-03-27T08:34:29.780Z,5.80
2019-03-27T08:35:29.772Z,6.30
2019-03-27T08:36:29.746Z,5.80
2019-03-27T08:37:29.793Z,6.30
2019-03-27T08:38:29.710Z,6.00
2019-03-27T08:39:29.693Z,6.10
2019-03-27T08:40:29.675Z,6.30
2019-03-27T08:41:29.657Z,6.40
2019-03-27T08:42:29.641Z,6.30
2019-03-27T08:43:29.627Z,6.40
2019-03-27T08:44:29.614Z,6.40
2019-03-27T08:45:29.587Z,6.80
2019-03-27T08:46:29.571Z,6.20
2019-03-27T08:47:29.557Z,5.90
2019-03-27T08:48:29.544Z,5.90
2019-03-27T08:49:29.518Z,6.90
2019-03-27T08:50:29.499Z,6.10
2019-03-27T08:51:29.485Z,5.40
2019-03-27T08:52:29.469Z,6.00
2019-03-27T08:53:29.451Z,5.80
2019-03-27T08:54:29.457Z,5.30
2019-03-27T08:55:29.429Z,5.80
2019-03-27T08:56:29.401Z,5.90
2019-03-27T08:57:29.393Z,6.30
2019-03-27T08:58:29.368Z,6.30
2019-03-27T08:59:29.353Z,6.50
2019-03-27T09:00:29.346Z,7.30
2019-03-27T09:01:29.321Z,7.10
2019-03-27T09:02:29.302Z,6.70
2019-03-27T09:03:29.288Z,6.60
2019-03-27T09:04:29.282Z,5.80
2019-03-27T09:05:29.257Z,6.30
2019-03-27T09:06:34.020Z,6.40
2019-03-27T09:07:29.222Z,5.80
2019-03-27T09:08:29.207Z,5.80
2019-03-27T09:09:29.191Z,6.60
2019-03-27T09:10:29.180Z,6.60
2019-03-27T09:11:29.156Z,5.60
2019-03-27T09:12:29.142Z,5.80
2019-03-27T09:13:29.124Z,6.70
2019-03-27T09:14:29.106Z,7.80
2019-03-27T09:15:29.095Z,6.10
2019-03-27T09:16:29.080Z,5.60
2019-03-27T09:17:29.061Z,5.40
2019-03-27T09:18:29.042Z,5.40
2019-03-27T09:19:35.445Z,5.40
2019-03-27T09:20:29.018Z,5.40
2019-03-27T09:21:29.052Z,5.30
2019-03-27T09:22:28.992Z,5.40
2019-03-27T09:23:28.965Z,5.30
2019-03-27T09:24:28.952Z,5.40
2019-03-27T09:25:28.931Z,5.00
2019-03-27T09:26:28.914Z,5.20
2019-03-27T09:27:28.907Z,5.40
2019-03-27T09:28:28.884Z,4.80
2019-03-27T09:29:28.868Z,5.60
2019-03-27T09:30:28.853Z,6.10
2019-03-27T09:31:28.845Z,5.80
2019-03-27T09:32:28.828Z,5.50
2019-03-27T09:33:28.804Z,6.20
2019-03-27T09:34:28.788Z,6.80
2019-03-27T09:35:28.771Z,6.40
2019-03-27T09:36:28.756Z,6.60
2019-03-27T09:37:28.749Z,6.80
2019-03-27T09:38:28.739Z,7.00
2019-03-27T09:39:28.779Z,6.10
2019-03-27T09:40:28.699Z,6.40
2019-03-27T09:41:28.684Z,6.10
2019-03-27T09:42:28.662Z,5.70
2019-03-27T09:43:28.658Z,5.80
2019-03-27T09:44:28.633Z,5.60
2019-03-27T09:45:28.627Z,6.10
2019-03-27T09:46:28.605Z,6.00
2019-03-27T09:47:28.590Z,6.10
2019-03-27T09:48:28.577Z,6.70
2019-03-27T09:49:28.643Z,6.50
2019-03-27T09:50:28.567Z,5.90
2019-03-27T09:51:28.550Z,6.50
2019-03-27T09:52:28.526Z,5.90
2019-03-27T09:53:28.520Z,6.00
2019-03-27T09:54:28.511Z,5.40
2019-03-27T09:55:28.493Z,5.10
2019-03-27T09:56:28.480Z,6.00
2019-03-27T09:57:28.468Z,5.50
2019-03-27T09:58:28.474Z,5.90
2019-03-27T09:59:28.442Z,6.30
2019-03-27T10:00:28.428Z,6.00
2019-03-27T10:01:28.415Z,6.20
2019-03-27T10:02:28.402Z,6.40
2019-03-27T10:03:28.389Z,6.10
2019-03-27T10:04:28.381Z,6.40
2019-03-27T10:05:32.227Z,6.50
2019-03-27T10:06:28.349Z,5.80
2019-03-27T10:07:28.337Z,6.10
2019-03-27T10:08:28.324Z,6.30
2019-03-27T10:09:28.309Z,7.00
2019-03-27T10:10:28.296Z,6.50
2019-03-27T10:11:28.291Z,6.60
2019-03-27T10:12:28.273Z,6.50
2019-03-27T10:13:28.277Z,6.80
2019-03-27T10:14:28.239Z,6.40
2019-03-27T10:15:28.224Z,6.00
2019-03-27T10:16:28.211Z,6.30
2019-03-27T10:17:28.195Z,6.50
2019-03-27T10:18:28.179Z,6.30
2019-03-27T10:19:28.176Z,6.60
2019-03-27T10:20:28.152Z,6.80
2019-03-27T10:21:28.143Z,6.60
2019-03-27T10:22:28.138Z,5.70
2019-03-27T10:23:28.106Z,6.70
2019-03-27T10:24:28.090Z,5.80
2019-03-27T10:25:28.074Z,5.70
2019-03-27T10:26:28.058Z,5.50
2019-03-27T10:27:28.043Z,6.00
2019-03-27T10:28:28.040Z,6.50
2019-03-27T10:29:28.013Z,5.70
2019-03-27T10:30:27.996Z,6.40
2019-03-27T10:31:27.988Z,6.00
2019-03-27T10:32:27.980Z,5.90
2019-03-27T10:33:27.965Z,7.10
2019-03-27T10:34:27.944Z,5.80
2019-03-27T10:35:27.923Z,6.40
2019-03-27T10:36:27.905Z,6.60
2019-03-27T10:37:27.898Z,6.40
2019-03-27T10:38:27.874Z,6.80
2019-03-27T10:39:27.912Z,6.40
2019-03-27T10:40:27.849Z,6.30
2019-03-27T10:41:27.831Z,6.70
2019-03-27T10:42:27.832Z,6.90
2019-03-27T10:43:27.810Z,6.20
2019-03-27T10:44:27.806Z,6.00
2019-03-27T10:45:27.777Z,5.50
2019-03-27T10:46:27.760Z,6.00
2019-03-27T10:47:27.744Z,5.90
2019-03-27T10:48:27.727Z,5.90
2019-03-27T10:49:27.723Z,6.00
2019-03-27T10:50:27.705Z,5.80
2019-03-27T10:51:27.685Z,5.90
2019-03-27T10:52:27.669Z,5.80
2019-03-27T10:53:27.673Z,6.10
2019-03-27T10:54:27.639Z,5.70
2019-03-27T10:55:27.626Z,5.60
2019-03-27T10:56:27.611Z,5.30
2019-03-27T10:57:27.608Z,5.60
2019-03-27T10:58:27.621Z,6.00
2019-03-27T10:59:27.565Z,5.40
2019-03-27T11:00:27.559Z,5.80
2019-03-27T11:01:27.536Z,6.00
2019-03-27T11:02:27.518Z,5.60
2019-03-27T11:03:27.517Z,5.10
2019-03-27T11:04:27.489Z,5.30
2019-03-27T11:05:27.473Z,5.50
2019-03-27T11:06:27.468Z,6.00
2019-03-27T11:07:27.526Z,6.00
2019-03-27T11:08:27.429Z,5.80
2019-03-27T11:09:27.417Z,5.60
2019-03-27T11:10:27.412Z,5.80
2019-03-27T11:11:27.387Z,5.60
2019-03-27T11:12:27.365Z,6.20
2019-03-27T11:13:27.369Z,7.50
2019-03-27T11:14:37.125Z,6.70
2019-03-27T11:15:27.371Z,6.00
2019-03-27T11:16:27.302Z,5.70
2019-03-27T11:17:27.288Z,5.70
2019-03-27T11:18:27.270Z,5.50
2019-03-27T11:19:27.256Z,5.10
2019-03-27T11:20:31.374Z,4.80
2019-03-27T11:21:27.224Z,4.30
2019-03-27T11:22:27.215Z,3.90
2019-03-27T11:23:27.193Z,4.10
2019-03-27T11:24:27.180Z,3.80
2019-03-27T11:25:27.227Z,4.00
2019-03-27T11:26:27.148Z,4.70
2019-03-27T11:27:27.141Z,4.90
2019-03-27T11:28:27.119Z,4.20
2019-03-27T11:29:27.111Z,4.50
2019-03-27T11:30:27.092Z,4.30
2019-03-27T11:31:27.080Z,4.30
2019-03-27T11:32:27.064Z,4.50
2019-03-27T11:33:28.952Z,4.40
2019-03-27T11:34:27.036Z,4.60
2019-03-27T11:35:27.020Z,5.00
2019-03-27T11:36:27.010Z,4.10
2019-03-27T11:37:27.037Z,4.30
2019-03-27T11:38:26.977Z,4.90
2019-03-27T11:39:26.965Z,4.30
2019-03-27T11:40:26.951Z,4.10
2019-03-27T11:41:26.939Z,4.20
2019-03-27T11:42:26.919Z,4.40
2019-03-27T11:43:26.908Z,4.30
2019-03-27T11:44:26.911Z,4.30
2019-03-27T11:45:26.930Z,4.30
2019-03-27T11:46:26.879Z,4.60
2019-03-27T11:47:26.851Z,4.30
2019-03-27T11:48:26.836Z,4.40
2019-03-27T11:49:26.821Z,3.90
2019-03-27T11:50:26.807Z,4.10
2019-03-27T11:51:26.793Z,4.40
2019-03-27T11:52:29.535Z,4.10
2019-03-27T11:53:26.765Z,4.20
2019-03-27T11:54:26.759Z,4.20
2019-03-27T11:55:26.741Z,4.60
2019-03-27T11:56:26.738Z,4.60
2019-03-27T11:58:30.761Z,4.00
2019-03-27T11:59:30.747Z,4.40
2019-03-27T12:00:30.784Z,4.20
2019-03-27T12:01:40.589Z,4.50
2019-03-27T12:02:30.701Z,4.20
2019-03-27T12:03:30.694Z,4.60
2019-03-27T12:04:30.735Z,4.70
2019-03-27T12:05:30.659Z,4.70
2019-03-27T12:06:30.639Z,4.30
2019-03-27T12:07:30.628Z,4.20
2019-03-27T12:08:30.618Z,4.10
2019-03-27T12:09:30.599Z,4.60
2019-03-27T12:10:30.585Z,4.30
2019-03-27T12:11:30.574Z,4.60
2019-03-27T12:12:30.551Z,4.40
2019-03-27T12:13:30.536Z,4.40
2019-03-27T12:14:30.521Z,4.10
2019-03-27T12:15:30.513Z,4.50
2019-03-27T12:16:30.493Z,4.40
2019-03-27T12:17:30.475Z,4.00
2019-03-27T12:18:32.073Z,4.10
2019-03-27T12:19:30.445Z,3.60
2019-03-27T12:20:30.455Z,3.40
2019-03-27T12:21:30.415Z,3.20
2019-03-27T12:22:30.411Z,3.10
2019-03-27T12:23:30.400Z,3.10
2019-03-27T12:24:30.368Z,3.80
2019-03-27T12:25:30.355Z,3.40
2019-03-27T12:26:30.337Z,3.80
2019-03-27T12:27:30.323Z,3.40
2019-03-27T12:28:30.323Z,3.60
2019-03-27T12:29:30.300Z,3.40
2019-03-27T12:30:30.283Z,3.50
2019-03-27T12:31:30.264Z,3.80
2019-03-27T12:32:30.254Z,3.70
2019-03-27T12:33:30.229Z,3.90
2019-03-27T12:34:30.311Z,3.70
2019-03-27T12:35:30.195Z,4.20
2019-03-27T12:36:30.185Z,3.70
2019-03-27T12:37:30.171Z,4.00
2019-03-27T12:38:30.147Z,3.80
2019-03-27T12:39:30.136Z,3.60
2019-03-27T12:40:30.116Z,3.60
2019-03-27T12:41:32.911Z,3.70
2019-03-27T12:42:30.083Z,3.50
2019-03-27T12:43:30.067Z,4.50
2019-03-27T12:44:30.071Z,4.00
2019-03-27T12:45:30.047Z,4.10
2019-03-27T12:46:30.026Z,4.20
2019-03-27T12:47:30.006Z,4.00
2019-03-27T12:48:29.984Z,4.10
2019-03-27T12:49:29.969Z,4.10
2019-03-27T12:50:29.952Z,4.20
2019-03-27T12:51:29.947Z,3.90
2019-03-27T12:52:30.016Z,3.60
2019-03-27T12:53:29.905Z,3.70
2019-03-27T12:54:29.888Z,3.90
2019-03-27T12:55:29.874Z,3.80
2019-03-27T12:56:29.859Z,3.00
2019-03-27T12:57:29.840Z,3.60
2019-03-27T12:58:29.827Z,3.20
2019-03-27T12:59:29.854Z,3.00
2019-03-27T13:00:29.793Z,2.80
2019-03-27T13:01:29.774Z,3.30
2019-03-27T13:02:29.763Z,3.10
2019-03-27T13:03:29.749Z,3.00
2019-03-27T13:04:29.731Z,3.30
2019-03-27T13:05:29.723Z,3.30
2019-03-27T13:06:29.698Z,2.90
2019-03-27T13:07:29.718Z,3.40
2019-03-27T13:08:29.661Z,3.00
2019-03-27T13:09:29.660Z,3.40
2019-03-27T13:10:29.638Z,3.00